Time;durP1;ratioP1;P1;durP2;ratioP2;P2;SDS_P1;SDS_P2;PMS_P1;PMS_P2;Temp;Humidity;BMP_temperature;BMP_pressure;BME280_temperature;BME280_humidity;BME280_pressure;Samples;Min_cycle;Max_cycle;Signal;HPM_P1;HPM_P2
2023/08/08 00:00:35;;;;;;;14.05;2.22;;;;;;;-142.75;100.00;76210.06;5069461;28;20055;-63
2023/08/08 00:03:01;;;;;;;8.88;1.75;;;;;;;-142.75;100.00;76188.44;5068675;28;20032;-64
2023/08/08 00:05:26;;;;;;;12.60;2.40;;;;;;;-142.75;100.00;76190.41;5069388;28;20052;-63
2023/08/08 00:07:51;;;;;;;8.98;1.95;;;;;;;-142.75;100.00;76186.47;5069451;28;20121;-63
2023/08/08 00:10:17;;;;;;;10.98;2.10;;;;;;;-142.75;100.00;76184.50;5084974;28;20459;-63
2023/08/08 00:12:42;;;;;;;18.10;2.97;;;;;;;-142.75;100.00;76174.66;5089272;28;20028;-63
2023/08/08 00:15:08;;;;;;;7.65;2.10;;;;;;;-142.75;100.00;76188.44;5089694;28;20027;-64
2023/08/08 00:17:33;;;;;;;11.13;2.53;;;;;;;-142.75;100.00;76170.72;5089468;28;20514;-63
2023/08/08 00:19:59;;;;;;;10.13;1.83;;;;;;;-142.75;100.00;76184.50;5088921;28;20052;-63
2023/08/08 00:22:24;;;;;;;9.65;2.40;;;;;;;-142.75;100.00;76166.78;5088846;28;20038;-62
2023/08/08 00:24:50;;;;;;;5.95;1.67;;;;;;;-142.75;100.00;76168.75;5089680;28;20035;-64
2023/08/08 00:27:15;;;;;;;12.27;2.50;;;;;;;-142.75;100.00;76160.88;5089343;28;20059;-63
2023/08/08 00:29:41;;;;;;;7.88;2.03;;;;;;;-142.75;100.00;76139.22;5089361;28;20024;-63
2023/08/08 00:32:06;;;;;;;8.77;1.98;;;;;;;-142.75;100.00;76141.19;5088748;28;20108;-63
2023/08/08 00:34:31;;;;;;;5.30;1.75;;;;;;;-142.75;100.00;76141.19;5084309;28;20494;-64
2023/08/08 00:36:57;;;;;;;9.65;1.90;;;;;;;-142.75;100.00;76141.19;5068921;28;20411;-63
2023/08/08 00:39:22;;;;;;;9.68;1.73;;;;;;;-142.75;100.00;76129.38;5068880;28;20040;-63
2023/08/08 00:41:47;;;;;;;9.30;2.50;;;;;;;-142.75;100.00;76129.38;5068464;28;20059;-63
2023/08/08 00:44:13;;;;;;;11.23;2.53;;;;;;;-142.75;100.00;76135.28;5068579;28;20076;-63
2023/08/08 00:46:38;;;;;;;10.98;2.20;;;;;;;-142.75;100.00;76127.41;5078163;28;20038;-62
2023/08/08 00:49:04;;;;;;;11.88;2.03;;;;;;;-142.75;100.00;76125.44;5088984;28;20040;-62
2023/08/08 00:51:29;;;;;;;8.77;1.75;;;;;;;-142.75;100.00;76121.50;5088829;28;20091;-62
2023/08/08 00:53:56;;;;;;;10.07;2.13;;;;;;;-142.75;100.00;76121.50;5088495;28;20054;-62
2023/08/08 00:56:22;;;;;;;15.95;3.03;;;;;;;-142.75;100.00;76117.56;5089077;28;20073;-61
2023/08/08 00:58:50;;;;;;;7.70;2.20;;;;;;;-142.75;100.00;76129.38;5088875;28;20495;-61
2023/08/08 01:01:16;;;;;;;12.18;2.33;;;;;;;-142.75;100.00;76125.44;5088863;28;20020;-62
2023/08/08 01:03:42;;;;;;;12.23;2.35;;;;;;;-142.75;100.00;76129.38;5088307;28;20028;-62
2023/08/08 01:06:16;;;;;;;7.57;2.15;;;;;;;-142.75;100.00;76129.38;5088697;28;20046;-62
2023/08/08 01:09:19;;;;;;;7.38;1.75;;;;;;;-142.75;100.00;76135.28;5088647;28;20036;-62
2023/08/08 01:11:48;;;;;;;9.00;2.05;;;;;;;-142.75;100.00;76151.03;5085712;28;20027;-61
2023/08/08 01:14:15;;;;;;;9.95;1.63;;;;;;;-142.75;100.00;76168.75;5084813;28;20028;-62
2023/08/08 01:16:42;;;;;;;14.25;2.00;;;;;;;-142.75;100.00;76172.69;5080873;28;20036;-62
2023/08/08 01:19:11;;;;;;;6.25;1.88;;;;;;;-142.75;100.00;76188.44;5068280;28;20095;-62
2023/08/08 01:21:40;;;;;;;8.48;2.38;;;;;;;-142.75;100.00;76196.31;5068043;28;20553;-62
2023/08/08 01:24:15;;;;;;;7.97;2.45;;;;;;;-142.75;100.00;76188.44;5068140;28;20418;-62
2023/08/08 01:26:41;;;;;;;5.40;1.63;;;;;;;-142.75;100.00;76192.38;5068286;28;20523;-61
2023/08/08 01:29:06;;;;;;;6.45;1.40;;;;;;;-142.75;100.00;76202.19;5068188;28;20074;-61
2023/08/08 01:31:31;;;;;;;6.50;2.05;;;;;;;-142.75;100.00;76192.38;5068185;28;20028;-61
2023/08/08 01:33:57;;;;;;;6.90;1.70;;;;;;;-142.75;100.00;76204.16;5068202;28;20078;-62
2023/08/08 01:36:30;;;;;;;8.45;1.70;;;;;;;-142.75;100.00;76200.25;5068517;28;20059;-62
2023/08/08 01:39:05;;;;;;;9.52;1.77;;;;;;;-142.75;100.00;76215.97;5068164;28;20039;-61
2023/08/08 01:41:33;;;;;;;6.35;1.58;;;;;;;-142.75;100.00;76202.19;5067996;28;20369;-61
2023/08/08 01:43:59;;;;;;;8.13;1.70;;;;;;;-142.75;100.00;76208.09;5067843;28;20021;-62
2023/08/08 01:46:26;;;;;;;6.55;1.58;;;;;;;-142.75;100.00;76204.16;5068162;28;20101;-62
2023/08/08 01:48:51;;;;;;;6.22;1.55;;;;;;;-142.75;100.00;76212.03;5068090;28;20029;-62
2023/08/08 01:51:17;;;;;;;5.18;1.60;;;;;;;-142.75;100.00;76225.81;5067990;28;20391;-62
2023/08/08 01:53:42;;;;;;;4.72;1.40;;;;;;;-142.75;100.00;76223.84;5067795;28;20021;-62
2023/08/08 01:56:08;;;;;;;8.98;1.85;;;;;;;-142.75;100.00;76231.72;5067948;28;20031;-62
2023/08/08 01:58:33;;;;;;;6.80;1.90;;;;;;;-142.75;100.00;76233.69;5067883;28;20021;-62
2023/08/08 02:00:59;;;;;;;3.30;1.27;;;;;;;-142.75;100.00;76241.56;5067785;28;20066;-61
2023/08/08 02:03:24;;;;;;;7.78;1.45;;;;;;;-142.75;100.00;76245.50;5067688;28;20029;-62
2023/08/08 02:05:49;;;;;;;5.95;1.58;;;;;;;-142.75;100.00;76282.91;5068118;28;20024;-62
2023/08/08 02:08:15;;;;;;;2.97;1.50;;;;;;;-142.75;100.00;76277.00;5068137;28;20484;-62
2023/08/08 02:10:40;;;;;;;3.38;1.20;;;;;;;-142.75;100.00;76275.03;5078025;28;20020;-61
2023/08/08 02:13:05;;;;;;;3.83;1.33;;;;;;;-142.75;100.00;76277.00;5087835;28;20491;-61
2023/08/08 02:15:31;;;;;;;3.95;1.20;;;;;;;-142.75;100.00;76269.13;5088028;28;20395;-62
2023/08/08 02:17:56;;;;;;;3.30;1.27;;;;;;;-142.75;100.00;76278.97;5087156;28;20060;-61
2023/08/08 02:20:21;;;;;;;2.95;1.27;;;;;;;-142.75;100.00;76278.97;5088000;28;20031;-62
2023/08/08 02:22:47;;;;;;;3.33;1.23;;;;;;;-142.75;100.00;76316.38;5087557;28;20551;-61
2023/08/08 02:25:12;;;;;;;5.05;1.45;;;;;;;-142.75;100.00;76312.44;5076078;28;20024;-62
2023/08/08 02:27:37;;;;;;;4.90;1.58;;;;;;;-142.75;100.00;76310.47;5071170;28;20035;-61
2023/08/08 02:30:03;;;;;;;3.90;1.60;;;;;;;-142.75;100.00;76314.41;5071185;28;20391;-62
2023/08/08 02:32:29;;;;;;;4.15;1.30;;;;;;;-142.75;100.00;76320.31;5069585;28;20048;-62
2023/08/08 02:34:54;;;;;;;3.90;1.40;;;;;;;-142.75;100.00;76330.16;5070086;28;20094;-62
2023/08/08 02:37:20;;;;;;;5.32;1.40;;;;;;;-142.75;100.00;76338.03;5071377;28;20043;-62
2023/08/08 02:39:45;;;;;;;2.47;1.23;;;;;;;-142.75;100.00;76341.97;5071131;28;20083;-61
2023/08/08 02:42:10;;;;;;;3.97;1.25;;;;;;;-142.75;100.00;76365.56;5070584;28;20024;-62
2023/08/08 02:44:36;;;;;;;3.80;1.05;;;;;;;-142.75;100.00;76389.19;5071343;28;20590;-62
2023/08/08 02:47:01;;;;;;;3.42;1.15;;;;;;;-142.75;100.00;76395.09;5071125;28;20457;-62
2023/08/08 02:49:26;;;;;;;2.92;1.27;;;;;;;-142.75;100.00;76383.28;5070946;28;20028;-62
2023/08/08 02:51:52;;;;;;;3.00;1.05;;;;;;;-142.75;100.00;76381.31;5070788;28;20021;-58
2023/08/08 02:54:17;;;;;;;4.40;1.20;;;;;;;-142.75;100.00;76381.31;5070860;28;20060;-61
2023/08/08 02:56:43;;;;;;;7.88;1.17;;;;;;;-142.75;100.00;76381.31;5070776;28;20511;-61
2023/08/08 02:59:08;;;;;;;5.63;1.25;;;;;;;-142.75;100.00;76373.44;5070972;28;20020;-62
2023/08/08 03:01:37;;;;;;;4.15;1.00;;;;;;;-142.75;100.00;76393.13;5070532;28;20704;-62
2023/08/08 03:04:03;;;;;;;2.35;1.10;;;;;;;-142.75;100.00;76402.97;5085941;28;20169;-61
2023/08/08 03:06:28;;;;;;;2.63;1.00;;;;;;;-142.75;100.00;76393.13;5090917;28;20527;-62
2023/08/08 03:08:53;;;;;;;2.55;1.20;;;;;;;-142.75;100.00;76401.00;5090968;28;20039;-62
2023/08/08 03:11:19;;;;;;;2.58;1.13;;;;;;;-142.75;100.00;76424.63;5090611;28;20024;-62
2023/08/08 03:13:44;;;;;;;3.83;1.20;;;;;;;-142.75;100.00;76446.28;5090545;28;20054;-62
2023/08/08 03:16:09;;;;;;;4.32;0.80;;;;;;;-142.75;100.00;76448.25;5090707;28;20368;-62
2023/08/08 03:18:35;;;;;;;4.03;0.90;;;;;;;-142.75;100.00;76460.06;5090876;28;20433;-61
2023/08/08 03:21:00;;;;;;;6.20;1.20;;;;;;;-142.75;100.00;76458.09;5090571;28;20063;-62
2023/08/08 03:23:25;;;;;;;4.68;1.00;;;;;;;-142.75;100.00;76454.16;5090446;28;20063;-61
2023/08/08 03:25:51;;;;;;;4.38;0.80;;;;;;;-142.75;100.00;76456.13;5089227;28;20035;-62
2023/08/08 03:28:16;;;;;;;2.03;0.63;;;;;;;-142.75;100.00;76458.09;5090512;28;20105;-61
2023/08/08 03:30:41;;;;;;;3.88;1.00;;;;;;;-142.75;100.00;76460.06;5090396;28;20137;-61
2023/08/08 03:33:07;;;;;;;2.72;0.70;;;;;;;-142.75;100.00;76456.13;5090092;28;20031;-61
2023/08/08 03:35:32;;;;;;;6.88;0.98;;;;;;;-142.75;100.00;76456.13;5089888;28;20023;-61
2023/08/08 03:37:58;;;;;;;4.22;0.63;;;;;;;-142.75;100.00;76450.22;5089465;28;20599;-62
2023/08/08 03:40:23;;;;;;;2.20;0.60;;;;;;;-142.75;100.00;76446.28;5090084;28;20023;-62
2023/08/08 03:42:48;;;;;;;1.77;0.50;;;;;;;-142.75;100.00;76444.31;5089859;28;20107;-61
2023/08/08 03:45:14;;;;;;;2.70;0.60;;;;;;;-142.75;100.00;76438.41;5090196;28;20093;-62
2023/08/08 03:47:39;;;;;;;3.83;0.90;;;;;;;-142.75;100.00;76467.94;5090086;28;20031;-62
2023/08/08 03:50:06;;;;;;;3.88;0.63;;;;;;;-142.75;100.00;76456.13;5090018;28;20027;-61
2023/08/08 03:52:34;;;;;;;5.30;0.80;;;;;;;-142.75;100.00;76454.16;5090273;28;20070;-62
2023/08/08 03:54:59;;;;;;;4.07;1.15;;;;;;;-142.75;100.00;76452.19;5090063;28;20073;-62
2023/08/08 03:57:25;;;;;;;4.00;1.02;;;;;;;-142.75;100.00;76452.19;5090043;28;20048;-61
2023/08/08 03:59:50;;;;;;;4.55;0.93;;;;;;;-142.75;100.00;76464.00;5069857;28;20468;-61
2023/08/08 04:02:15;;;;;;;1.52;0.85;;;;;;;-142.75;100.00;76450.22;5069267;28;20037;-62
2023/08/08 04:04:41;;;;;;;3.40;0.68;;;;;;;-142.75;100.00;76444.31;5069422;28;20052;-61
2023/08/08 04:07:06;;;;;;;4.32;0.77;;;;;;;-142.75;100.00;76436.44;5069415;28;20112;-61
2023/08/08 04:09:31;;;;;;;3.42;0.65;;;;;;;-142.75;100.00;76432.50;5069700;28;20046;-62
2023/08/08 04:11:57;;;;;;;2.88;0.70;;;;;;;-142.75;100.00;76426.59;5069091;28;20103;-61
2023/08/08 04:14:22;;;;;;;2.85;0.82;;;;;;;-142.75;100.00;76434.47;5069257;28;20059;-62
2023/08/08 04:16:47;;;;;;;6.07;0.90;;;;;;;-142.75;100.00;76406.91;5069279;28;20028;-61
2023/08/08 04:19:13;;;;;;;7.50;1.25;;;;;;;-142.75;100.00;76416.75;5069534;28;20032;-62
2023/08/08 04:21:38;;;;;;;1.65;0.68;;;;;;;-142.75;100.00;76424.63;5068969;28;20059;-62
2023/08/08 04:24:03;;;;;;;8.38;1.33;;;;;;;-142.75;100.00;76428.56;5068917;28;20040;-62
2023/08/08 04:26:29;;;;;;;3.25;0.80;;;;;;;-142.75;100.00;76440.38;5069008;28;20024;-61
2023/08/08 04:28:55;;;;;;;4.68;1.27;;;;;;;-142.75;100.00;76436.44;5069340;28;20173;-61
2023/08/08 04:31:23;;;;;;;3.83;0.80;;;;;;;-142.75;100.00;76428.56;5069276;28;20101;-62
2023/08/08 04:33:48;;;;;;;2.10;0.70;;;;;;;-142.75;100.00;76432.50;5068771;28;20046;-62
2023/08/08 04:36:14;;;;;;;3.55;0.85;;;;;;;-142.75;100.00;76450.22;5068954;28;20593;-61
2023/08/08 04:38:39;;;;;;;5.05;1.05;;;;;;;-142.75;100.00;76450.22;5068904;28;20028;-61
2023/08/08 04:41:04;;;;;;;5.85;0.90;;;;;;;-142.75;100.00;76456.13;5068551;28;20029;-62
2023/08/08 04:43:30;;;;;;;4.63;1.23;;;;;;;-142.75;100.00;76452.19;5069388;28;20021;-62
2023/08/08 04:45:55;;;;;;;1.75;0.55;;;;;;;-142.75;100.00;76460.06;5087656;28;20494;-62
2023/08/08 04:48:21;;;;;;;2.47;0.70;;;;;;;-142.75;100.00;76460.06;5088955;28;20039;-61
2023/08/08 04:50:47;;;;;;;3.22;0.70;;;;;;;-142.75;100.00;76458.09;5088814;28;20020;-62
2023/08/08 04:53:12;;;;;;;3.55;0.85;;;;;;;-142.75;100.00;76465.97;5088568;28;20110;-62
2023/08/08 04:55:37;;;;;;;3.50;0.80;;;;;;;-142.75;100.00;76454.16;5088820;28;20027;-62
2023/08/08 04:58:03;;;;;;;3.35;0.80;;;;;;;-142.75;100.00;76469.91;5088889;28;20085;-62
2023/08/08 05:00:28;;;;;;;3.25;0.80;;;;;;;-142.75;100.00;76473.84;5088792;28;20035;-61
2023/08/08 05:02:54;;;;;;;4.53;0.70;;;;;;;-142.75;100.00;76460.06;5088574;28;20024;-62
2023/08/08 05:05:19;;;;;;;2.88;0.82;;;;;;;-142.75;100.00;76460.06;5088917;28;20024;-62
2023/08/08 05:07:44;;;;;;;3.05;0.90;;;;;;;-142.75;100.00;76464.00;5088898;28;20024;-62
2023/08/08 05:10:10;;;;;;;3.92;0.77;;;;;;;-142.75;100.00;76464.00;5088514;28;20383;-62
2023/08/08 05:12:35;;;;;;;4.45;0.70;;;;;;;-142.75;100.00;76467.94;5088361;28;20036;-62
2023/08/08 05:15:00;;;;;;;4.20;0.60;;;;;;;-142.75;100.00;76450.22;5088590;28;20045;-62
2023/08/08 05:17:26;;;;;;;3.53;0.63;;;;;;;-142.75;100.00;76452.19;5088462;28;20056;-62
2023/08/08 05:19:51;;;;;;;2.80;0.70;;;;;;;-142.75;100.00;76428.56;5088688;28;20064;-62
2023/08/08 05:22:16;;;;;;;3.10;0.85;;;;;;;-142.75;100.00;76432.50;5088145;28;20419;-62
2023/08/08 05:24:42;;;;;;;2.88;0.65;;;;;;;-142.75;100.00;76416.75;5088437;28;20035;-62
2023/08/08 05:27:07;;;;;;;3.58;0.70;;;;;;;-142.75;100.00;76436.44;5088428;28;20028;-62
2023/08/08 05:29:32;;;;;;;2.50;0.60;;;;;;;-142.75;100.00;76416.75;5088425;28;20107;-62
2023/08/08 05:31:58;;;;;;;3.70;0.77;;;;;;;-142.75;100.00;76420.69;5088125;28;20020;-62
2023/08/08 05:34:24;;;;;;;3.05;0.60;;;;;;;-142.75;100.00;76420.69;5088457;28;20024;-62
2023/08/08 05:36:49;;;;;;;3.05;0.80;;;;;;;-142.75;100.00;76424.63;5087046;28;20487;-62
2023/08/08 05:39:15;;;;;;;4.15;0.60;;;;;;;-142.75;100.00;76410.84;5088407;28;20055;-62
2023/08/08 05:41:40;;;;;;;2.28;0.60;;;;;;;-142.75;100.00;76401.00;5088185;28;20060;-62
2023/08/08 05:44:05;;;;;;;4.10;0.70;;;;;;;-142.75;100.00;76397.06;5088124;28;20054;-62
2023/08/08 05:46:31;;;;;;;5.45;0.82;;;;;;;-142.75;100.00;76389.19;5088495;28;20054;-62
2023/08/08 05:48:56;;;;;;;4.35;0.63;;;;;;;-142.75;100.00;76389.19;5088228;28;20020;-63
2023/08/08 05:51:22;;;;;;;4.30;0.70;;;;;;;-142.75;100.00;76365.56;5088414;28;20103;-62
2023/08/08 05:53:48;;;;;;;4.28;1.10;;;;;;;-142.75;100.00;76373.44;5087745;28;20044;-62
2023/08/08 05:56:13;;;;;;;5.10;0.60;;;;;;;-142.75;100.00;76377.38;5088286;28;20024;-62
2023/08/08 05:58:39;;;;;;;3.92;0.70;;;;;;;-142.75;100.00;76369.50;5088114;28;20113;-61
2023/08/08 06:01:09;;;;;;;3.08;1.45;;;;;;;-142.75;100.00;76345.91;5091422;28;20056;-62
2023/08/08 06:03:35;;;;;;;3.33;0.80;;;;;;;-142.75;100.00;76334.09;5091985;28;20035;-62
2023/08/08 06:06:01;;;;;;;2.53;0.45;;;;;;;-142.75;100.00;76322.28;5091945;28;20070;-62
2023/08/08 06:08:26;;;;;;;2.45;0.60;;;;;;;-142.75;100.00;76306.53;5091964;28;20024;-60
2023/08/08 06:10:51;;;;;;;4.53;0.60;;;;;;;-142.75;100.00;76310.47;5092145;28;20030;-62
2023/08/08 06:13:17;;;;;;;4.55;0.50;;;;;;;-142.75;100.00;76286.84;5091565;28;20459;-62
2023/08/08 06:15:42;;;;;;;2.45;0.40;;;;;;;-142.75;100.00;76288.81;5092168;28;20048;-62
2023/08/08 06:18:08;;;;;;;3.65;0.77;;;;;;;-142.75;100.00;76282.91;5091935;28;20030;-62
2023/08/08 06:20:33;;;;;;;7.25;0.57;;;;;;;-142.75;100.00;76282.91;5091780;28;20410;-62
2023/08/08 06:22:58;;;;;;;1.58;0.45;;;;;;;-142.75;100.00;76259.28;5091296;28;20110;-62
2023/08/08 06:25:25;;;;;;;4.03;0.55;;;;;;;-142.75;100.00;76269.13;5091905;28;20028;-62
2023/08/08 06:27:50;;;;;;;1.65;0.50;;;;;;;-142.75;100.00;76255.34;5091839;28;20039;-62
2023/08/08 06:30:16;;;;;;;1.63;0.50;;;;;;;-142.75;100.00;76251.41;5091627;28;20024;-62
2023/08/08 06:32:41;;;;;;;2.22;0.40;;;;;;;-142.75;100.00;76233.69;5091327;28;20375;-61
2023/08/08 06:35:07;;;;;;;1.48;0.47;;;;;;;-142.75;100.00;76215.97;5091635;28;20511;-61
2023/08/08 06:37:32;;;;;;;3.05;0.75;;;;;;;-142.75;100.00;76160.88;5091401;28;20120;-62
2023/08/08 06:39:58;;;;;;;2.63;0.60;;;;;;;-142.75;100.00;76174.66;5091407;28;20030;-62
2023/08/08 06:42:23;;;;;;;2.38;0.50;;;;;;;-142.75;100.00;76188.44;5091045;28;20450;-62
2023/08/08 06:44:48;;;;;;;4.78;0.60;;;;;;;-142.75;100.00;76174.66;5091274;28;20399;-61
2023/08/08 06:47:14;;;;;;;1.27;0.40;;;;;;;-142.75;100.00;76172.69;5074519;28;20020;-62
2023/08/08 06:49:39;;;;;;;3.13;0.50;;;;;;;-142.75;100.00;76153.00;5071238;28;20115;-62
2023/08/08 06:52:05;;;;;;;3.58;0.82;;;;;;;-142.75;100.00;76174.66;5074163;28;20479;-62
2023/08/08 06:54:31;;;;;;;1.70;0.60;;;;;;;-142.75;100.00;76182.53;5075146;28;20029;-61
2023/08/08 06:56:57;;;;;;;1.35;0.60;;;;;;;-142.75;100.00;76194.34;5075836;28;20028;-62
2023/08/08 06:59:23;;;;;;;2.58;0.55;;;;;;;-142.75;100.00;76210.06;5071209;28;20408;-62
2023/08/08 07:01:48;;;;;;;2.85;0.60;;;;;;;-142.75;100.00;76221.88;5077836;28;20118;-62
2023/08/08 07:04:14;;;;;;;1.20;0.45;;;;;;;-142.75;100.00;76210.06;5074067;28;20175;-61
2023/08/08 07:06:39;;;;;;;1.83;0.60;;;;;;;-142.75;100.00;76194.34;5083866;28;20024;-62
2023/08/08 07:09:05;;;;;;;2.58;0.65;;;;;;;-142.75;100.00;76208.09;5088365;28;20028;-62
2023/08/08 07:11:31;;;;;;;3.80;0.40;;;;;;;-142.75;100.00;76200.25;5082394;28;20368;-62
2023/08/08 07:13:56;;;;;;;1.73;0.60;;;;;;;-142.75;100.00;76184.50;5076106;28;20031;-62
2023/08/08 07:16:22;;;;;;;2.47;0.40;;;;;;;-142.75;100.00;76192.38;5071391;28;20035;-63
2023/08/08 07:18:47;;;;;;;2.20;0.57;;;;;;;-142.75;100.00;76166.78;5070373;28;20506;-64
2023/08/08 07:21:12;;;;;;;3.88;0.57;;;;;;;-142.75;100.00;76164.81;5070232;28;20079;-64
2023/08/08 07:23:38;;;;;;;3.53;0.30;;;;;;;-142.75;100.00;76149.06;5070309;28;20031;-64
2023/08/08 07:26:03;;;;;;;3.20;0.60;;;;;;;-142.75;100.00;76107.72;5070641;28;20024;-64
2023/08/08 07:28:28;;;;;;;1.58;0.55;;;;;;;-142.75;100.00;76097.88;5070321;28;20035;-64
2023/08/08 07:30:54;;;;;;;6.80;0.32;;;;;;;-142.75;100.00;76082.13;5070409;28;20028;-63
2023/08/08 07:33:19;;;;;;;2.42;1.10;;;;;;;-142.75;100.00;76082.13;5069877;28;20039;-62
2023/08/08 07:35:45;;;;;;;4.65;0.60;;;;;;;-142.75;100.00;76038.84;5070087;28;20047;-62
2023/08/08 07:38:10;;;;;;;2.05;0.65;;;;;;;-142.75;100.00;75989.63;5070093;28;20060;-62
2023/08/08 07:40:36;;;;;;;1.88;0.50;;;;;;;-142.75;100.00;75969.94;5070911;28;20032;-62
2023/08/08 07:43:01;;;;;;;1.05;0.47;;;;;;;-142.75;99.52;75944.38;5070969;28;20077;-62
2023/08/08 07:45:26;;;;;;;2.10;0.40;;;;;;;-142.75;96.62;75918.78;5070235;28;20581;-62
2023/08/08 07:47:52;;;;;;;2.67;0.60;;;;;;;-142.75;96.86;75920.75;5069917;28;20028;-62
2023/08/08 07:50:18;;;;;;;2.42;0.60;;;;;;;-142.75;90.23;75967.97;5069785;28;20111;-62
2023/08/08 07:52:43;;;;;;;10.57;0.77;;;;;;;-142.75;93.22;75967.97;5071571;28;20012;-63
2023/08/08 07:55:09;;;;;;;2.10;0.50;;;;;;;-142.75;91.25;75952.25;5075901;28;20119;-62
2023/08/08 07:57:34;;;;;;;4.88;0.60;;;;;;;-142.75;91.47;75936.50;5074818;28;20079;-62
2023/08/08 08:00:07;;;;;;;1.60;0.40;;;;;;;-142.75;91.61;75940.44;5070120;28;20082;-62
2023/08/08 08:02:32;;;;;;;0.43;0.30;;;;;;;-142.75;90.71;75956.19;5070948;28;20027;-63
2023/08/08 08:04:57;;;;;;;1.83;0.40;;;;;;;-142.75;90.81;75964.03;5070158;28;20399;-62
2023/08/08 08:07:23;;;;;;;3.17;0.65;;;;;;;-142.75;91.97;75964.03;5069462;28;20040;-61
2023/08/08 08:09:49;;;;;;;2.42;0.50;;;;;;;-142.75;92.86;75966.00;5069606;28;20016;-62
2023/08/08 08:12:14;;;;;;;2.15;0.55;;;;;;;-142.75;91.49;75987.66;5069121;28;20069;-62
2023/08/08 08:14:40;;;;;;;1.73;0.40;;;;;;;-142.75;92.47;75962.09;5069550;28;20012;-62
2023/08/08 08:17:05;;;;;;;3.38;0.45;;;;;;;-142.75;89.12;75960.13;5069424;28;20078;-62
2023/08/08 08:19:30;;;;;;;2.65;0.43;;;;;;;-142.75;90.36;75969.94;5069158;28;20541;-62
2023/08/08 08:21:56;;;;;;;1.50;0.40;;;;;;;-142.75;92.00;75967.97;5068867;28;20103;-62
2023/08/08 08:24:23;;;;;;;2.58;0.57;;;;;;;-142.75;90.35;75983.72;5069171;28;20024;-61
2023/08/08 08:26:48;;;;;;;1.15;0.43;;;;;;;-142.75;89.69;75967.97;5069263;28;20108;-62
2023/08/08 08:29:14;;;;;;;2.50;0.60;;;;;;;-142.75;88.45;75991.59;5069119;28;20095;-62
2023/08/08 08:31:39;;;;;;;6.07;0.68;;;;;;;-142.75;90.29;75956.19;5068941;28;20016;-62
2023/08/08 08:34:05;;;;;;;2.60;0.50;;;;;;;-142.75;89.80;75946.34;5070737;28;20038;-62
2023/08/08 08:36:30;;;;;;;6.07;1.08;;;;;;;-142.75;88.30;75952.25;5069176;28;20016;-62
2023/08/08 08:38:55;;;;;;;1.73;0.52;;;;;;;-142.75;89.61;75940.44;5069080;28;20571;-63
2023/08/08 08:41:25;;;;;;;1.75;0.40;;;;;;;-142.75;89.00;75922.72;5068855;28;20056;-62
2023/08/08 08:43:51;;;;;;;2.83;0.60;;;;;;;-142.75;87.85;75956.19;5068749;28;20044;-62
2023/08/08 08:46:21;;;;;;;1.77;0.40;;;;;;;-142.75;87.64;75916.81;5068756;28;20044;-62
2023/08/08 08:48:48;;;;;;;0.90;0.55;;;;;;;-142.75;87.72;75895.16;5073431;28;20024;-62
2023/08/08 08:51:15;;;;;;;2.97;0.60;;;;;;;-142.75;87.57;75903.03;5075121;28;20024;-63
2023/08/08 08:53:46;;;;;;;3.28;0.68;;;;;;;-142.75;89.80;75849.91;5074937;28;20447;-64
2023/08/08 08:56:14;;;;;;;1.08;0.35;;;;;;;-142.75;84.50;75849.91;5078055;28;20021;-64
2023/08/08 08:58:43;;;;;;;3.08;0.50;;;;;;;-142.75;82.49;75838.09;5079782;28;20061;-64
2023/08/08 09:01:11;;;;;;;3.95;0.70;;;;;;;-142.75;82.18;75810.53;5074029;28;20082;-64
2023/08/08 09:03:37;;;;;;;2.03;0.60;;;;;;;-142.75;81.45;75826.28;5070121;28;20024;-64
2023/08/08 09:06:04;;;;;;;2.35;0.60;;;;;;;-142.75;83.03;75920.75;5071086;28;20020;-63
2023/08/08 09:08:29;;;;;;;2.40;0.57;;;;;;;-142.75;83.65;75928.63;5072076;28;21697;-63
2023/08/08 09:10:56;;;;;;;2.15;0.50;;;;;;;-142.75;84.31;75962.09;5075313;28;20017;-63
2023/08/08 09:13:22;;;;;;;1.35;0.55;;;;;;;-142.75;87.04;75932.56;5075067;28;20039;-62
2023/08/08 09:15:51;;;;;;;1.27;0.40;;;;;;;-142.75;85.96;75948.31;5072525;28;20031;-62
2023/08/08 09:18:16;;;;;;;1.83;0.60;;;;;;;-142.75;85.77;75956.19;5068299;28;20020;-62
2023/08/08 09:20:50;;;;;;;2.65;0.60;;;;;;;-142.75;86.71;75960.13;5068293;28;20424;-62
2023/08/08 09:23:15;;;;;;;1.10;0.40;;;;;;;-142.75;87.70;75977.81;5068169;28;20025;-62
2023/08/08 09:25:41;;;;;;;2.08;0.63;;;;;;;-142.75;88.21;75940.44;5068236;28;20024;-62
2023/08/08 09:28:06;;;;;;;2.20;0.50;;;;;;;-142.75;90.35;75875.47;5068233;28;20031;-62
2023/08/08 09:30:32;;;;;;;3.13;0.75;;;;;;;-142.75;87.23;75847.94;5068076;28;20039;-63
2023/08/08 09:33:01;;;;;;;1.52;0.60;;;;;;;-142.75;85.72;75883.34;5067980;28;20107;-62
2023/08/08 09:35:28;;;;;;;3.97;0.98;;;;;;;-142.75;83.39;75891.22;5070661;28;20055;-62
2023/08/08 09:37:55;;;;;;;4.45;0.65;;;;;;;-142.75;83.94;75912.88;5081925;28;20085;-62
2023/08/08 09:40:21;;;;;;;1.42;0.50;;;;;;;-142.75;85.17;75918.78;5078629;28;20025;-62
2023/08/08 09:42:46;;;;;;;1.00;0.40;;;;;;;-142.75;86.20;75897.13;5072261;28;20074;-62
2023/08/08 09:45:12;;;;;;;2.17;0.60;;;;;;;-142.75;84.75;75901.06;5074675;28;20036;-62
2023/08/08 09:47:38;;;;;;;2.10;0.50;;;;;;;-142.75;85.11;75859.72;5080257;28;20024;-62
2023/08/08 09:50:07;;;;;;;2.38;0.60;;;;;;;-142.75;83.61;75845.97;5077471;28;20059;-62
2023/08/08 09:52:38;;;;;;;1.15;0.40;;;;;;;-142.75;82.22;75877.44;5072993;28;20514;-62
2023/08/08 09:55:04;;;;;;;4.38;0.90;;;;;;;-142.75;83.52;75885.31;5071930;28;20025;-62
2023/08/08 09:57:31;;;;;;;3.67;0.60;;;;;;;-142.75;86.39;75897.13;5071741;28;20048;-62
2023/08/08 09:59:57;;;;;;;2.50;0.60;;;;;;;-142.75;88.48;75883.34;5073122;28;20024;-63
2023/08/08 10:02:22;;;;;;;1.67;0.47;;;;;;;-142.75;88.57;75861.69;5071547;28;20047;-62
2023/08/08 10:04:48;;;;;;;2.70;0.60;;;;;;;-142.75;86.38;75877.44;5072395;28;20028;-62
2023/08/08 10:07:14;;;;;;;2.88;0.55;;;;;;;-142.75;86.38;75840.06;5071418;28;20056;-62
2023/08/08 10:09:40;;;;;;;2.25;0.60;;;;;;;-142.75;85.46;75798.72;5071480;28;20024;-62
2023/08/08 10:12:07;;;;;;;3.25;0.70;;;;;;;-142.75;85.02;75769.19;5071156;28;20021;-60
2023/08/08 10:14:39;;;;;;;1.30;0.65;;;;;;;-142.75;86.96;75729.84;5070435;28;20571;-62
2023/08/08 10:17:06;;;;;;;0.82;0.30;;;;;;;-142.75;83.24;75712.13;5071639;28;20054;-62
2023/08/08 10:19:32;;;;;;;3.10;0.50;;;;;;;-142.75;83.04;75690.47;5080095;28;20115;-62
2023/08/08 10:22:05;;;;;;;2.20;0.60;;;;;;;-142.75;83.07;75688.50;5075040;28;20108;-63
2023/08/08 10:24:36;;;;;;;2.08;0.60;;;;;;;-142.75;82.22;75721.97;5075996;28;20078;-62
2023/08/08 10:27:04;;;;;;;3.15;0.57;;;;;;;-142.75;80.99;75792.81;5076487;28;20499;-62
2023/08/08 10:29:32;;;;;;;2.17;0.68;;;;;;;-142.75;81.39;75792.81;5078452;28;20027;-62
2023/08/08 10:31:59;;;;;;;3.17;0.63;;;;;;;-142.75;80.79;75849.91;5077629;28;20077;-63
2023/08/08 10:34:38;;;;;;;2.90;0.68;;;;;;;-142.75;82.92;75853.84;5078823;28;20024;-62
2023/08/08 10:37:11;;;;;;;3.28;0.68;;;;;;;-142.75;84.54;75855.81;5071113;28;20146;-62
2023/08/08 10:39:36;;;;;;;4.10;0.80;;;;;;;-142.75;83.78;75885.31;5076881;28;20024;-63
2023/08/08 10:42:04;;;;;;;2.88;0.47;;;;;;;-142.75;84.93;75877.44;5070545;28;20028;-62
2023/08/08 10:44:30;;;;;;;4.68;0.50;;;;;;;-142.75;83.74;75893.19;5071024;28;20033;-62
2023/08/08 10:46:56;;;;;;;2.15;0.40;;;;;;;-142.75;82.99;75916.81;5071435;28;20082;-62
2023/08/08 10:49:21;;;;;;;1.25;0.50;;;;;;;-142.75;82.30;75899.09;5075564;28;20056;-63
2023/08/08 10:51:49;;;;;;;1.33;0.50;;;;;;;-142.75;81.56;75885.31;5072082;28;20163;-62
2023/08/08 10:54:29;;;;;;;2.00;0.70;;;;;;;-142.75;83.67;75849.91;5077525;28;20115;-62
2023/08/08 10:56:58;;;;;;;1.90;0.60;;;;;;;-142.75;85.59;75834.16;5074509;28;20031;-62
2023/08/08 10:59:39;;;;;;;2.55;0.68;;;;;;;-142.75;84.50;75786.91;5077907;28;20036;-62
2023/08/08 11:02:04;;;;;;;1.75;0.63;;;;;;;-142.75;85.93;75765.25;5072025;28;20058;-63
2023/08/08 11:04:32;;;;;;;2.35;1.00;;;;;;;-142.75;83.25;75751.50;5072065;28;20150;-62
2023/08/08 11:06:57;;;;;;;4.28;0.63;;;;;;;-142.75;84.71;75767.22;5072015;28;20020;-62